Latest Weather Observations for Renmark Airport

IDS60801

Issued at 5:01 pm CST Friday 4 September 2015 (issued every 30 minutes, with the page automatically refreshed every 10 minutes)

About weather observations | Map of weather stations | Latest weather observations for SA | Other Formats
Station Details ID: 024048 Name: RENMARK AERO Lat: -34.20 Lon: 140.68 Height: 31.5 m
Data from the previous 72 hours. | See also: Recent months at Renmark Airport
Date/Time
CST
Temp
°C
App
Temp
°C
Dew
Point
Rel
Hum
%
Delta-T
°C
Wind Press
QNH
hPa
Press
MSL
hPa
Rain
since 9 am
mm
Dir
 
Spd
km/h
Gust
km/h
Spd
kts
Gust
kts
04/05:00pm 13.9 10.7 5.3 56 4.0 SW 11 15 6 8 1024.8 1024.8 0.0
04/04:30pm 14.0 11.1 4.9 54 4.2 SW 9 15 5 8 1024.7 1024.7 0.0
04/04:00pm 14.5 11.5 4.2 50 4.7 SSW 9 15 5 8 1024.6 1024.6 0.0
04/03:30pm 14.3 10.7 5.1 54 4.3 SSW 13 17 7 9 1024.7 1024.7 0.0
04/03:00pm 14.4 11.3 5.5 55 4.2 SSW 11 20 6 11 1024.8 1024.8 0.0
04/02:30pm 14.7 13.3 5.5 54 4.3 WSW 2 9 1 5 1024.8 1024.8 0.0
04/02:00pm 13.8 11.1 5.7 58 3.8 SSW 9 15 5 8 1025.0 1025.0 0.0
04/01:30pm 14.0 11.9 5.6 57 3.9 SW 6 15 3 8 1025.3 1025.3 0.0
04/01:00pm 13.8 11.2 6.2 60 3.6 SSW 9 13 5 7 1025.6 1025.6 0.0
04/12:30pm 13.6 11.5 6.0 60 3.6 SSW 6 13 3 7 1025.9 1025.9 0.0
04/12:00pm 13.2 11.2 6.3 63 3.3 SE 6 11 3 6 1026.5 1026.5 0.0
04/11:30am 12.8 10.6 6.2 64 3.1 S 7 11 4 6 1027.1 1027.1 0.0
04/11:00am 12.8 10.7 6.6 66 3.0 S 7 9 4 5 1027.4 1027.4 0.0
04/10:30am 12.5 11.0 7.0 69 2.6 SSE 4 9 2 5 1027.7 1027.7 0.0
04/10:00am 12.1 10.2 7.4 73 2.3 S 7 9 4 5 1028.0 1028.0 0.0
04/09:30am 11.7 9.8 7.4 75 2.1 SE 7 11 4 6 1027.9 1027.9 0.0
04/09:00am 11.5 9.2 7.6 77 1.9 SSE 9 15 5 8 1027.9 1027.9 0.0
04/08:30am 11.1 8.7 8.7 85 1.2 S 11 15 6 8 1027.7 1027.7 0.0
04/08:00am 10.4 7.8 9.2 92 0.6 SSW 13 17 7 9 1027.5 1027.5 0.0
04/07:30am 9.1 8.2 9.1 100 0.0 SW 4 9 2 5 1027.1 1027.1 0.0
04/07:00am 7.9 6.3 7.9 100 0.0 WSW 6 7 3 4 1026.8 1026.8 0.0
04/06:30am 7.7 5.8 7.7 100 0.0 WSW 7 7 4 4 1026.5 1026.5 0.0
04/06:00am 8.4 6.7 8.4 100 0.0 W 7 9 4 5 1026.3 1026.3 0.0
04/05:30am 8.6 7.0 8.6 100 0.0 SW 7 9 4 5 1026.1 1026.1 0.0
04/05:00am 8.9 7.0 8.9 100 0.0 SSW 9 11 5 6 1025.8 1025.8 0.0
04/04:30am 8.8 6.8 8.8 100 0.0 SSW 9 13 5 7 1025.6 1025.6 0.0
04/04:00am 9.2 7.0 9.2 100 0.0 SSW 11 13 6 7 1025.4 1025.4 0.0
04/03:30am 8.9 6.6 8.9 100 0.0 SSW 11 13 6 7 1025.1 1025.1 0.0
04/03:00am 9.1 6.8 9.1 100 0.0 SSW 11 17 6 9 1025.2 1025.2 0.0
04/02:30am 9.3 7.5 9.3 100 0.0 SSW 9 13 5 7 1025.3 1025.3 0.0
04/02:00am 9.7 7.6 9.6 99 0.0 SSW 11 13 6 7 1025.3 1025.3 0.0
04/01:30am 10.4 8.2 9.5 94 0.4 SW 11 17 6 9 1025.4 1025.4 0.0
04/01:00am 11.0 8.1 9.6 91 0.7 SSW 15 22 8 12 1025.2 1025.2 0.0
04/12:30am 11.4 8.1 9.7 89 0.9 SSW 17 22 9 12 1025.1 1025.1 0.0
04/12:00am 11.3 8.8 9.6 89 0.9 SSW 13 19 7 10 1025.0 1025.0 0.0
 
Date/Time
CST
Temp
°C
App
Temp
°C
Dew
Point
Rel
Hum
%
Delta-T
°C
Wind Press
QNH
hPa
Press
MSL
hPa
Rain
since 9 am
mm
Dir
 
Spd
km/h
Gust
km/h
Spd
kts
Gust
kts
03/11:30pm 11.5 8.5 9.4 87 1.1 SSW 15 20 8 11 1024.9 1024.9 0.0
03/11:00pm 11.6 7.9 9.3 86 1.2 SSW 19 28 10 15 1024.7 1024.7 0.0
03/10:30pm 11.6 7.7 9.3 86 1.1 SSW 20 28 11 15 1024.7 1024.7 0.0
03/10:00pm 12.0 7.3 9.2 83 1.4 SSW 24 35 13 19 1024.4 1024.4 0.0
03/09:30pm 12.1 8.3 9.7 85 1.2 SSW 20 28 11 15 1024.4 1024.4 0.0
03/09:00pm 12.4 8.8 9.8 84 1.3 SW 19 26 10 14 1024.0 1024.0 0.0
03/08:30pm 13.0 9.3 10.2 83 1.4 SW 20 28 11 15 1023.7 1023.7 0.0
03/08:00pm 13.5 9.9 10.7 83 1.5 SW 20 32 11 17 1023.3 1023.3 0.0
03/07:30pm 13.8 10.6 11.1 84 1.4 SW 19 28 10 15 1022.8 1022.8 0.0
03/07:00pm 14.0 11.1 11.0 82 1.6 SW 17 28 9 15 1022.5 1022.5 0.0
03/06:30pm 14.2 11.1 10.2 77 2.1 SW 17 20 9 11 1022.3 1022.3 0.0
03/06:00pm 14.5 10.9 9.9 74 2.4 SW 19 28 10 15 1021.7 1021.7 0.0
03/05:30pm 15.0 11.9 8.9 67 3.1 SSW 15 22 8 12 1021.3 1021.3 0.0
03/05:00pm 15.4 11.9 8.6 64 3.5 SSW 17 22 9 12 1021.1 1021.1 0.0
03/04:30pm 15.4 11.9 8.9 65 3.3 SSW 17 24 9 13 1020.7 1020.7 0.0
03/04:00pm 15.5 12.1 9.2 66 3.2 SSW 17 24 9 13 1020.3 1020.3 0.0
03/03:30pm 15.4 12.0 9.1 66 3.2 SSW 17 24 9 13 1020.1 1020.1 0.0
03/03:00pm 15.0 11.2 9.1 68 3.0 SSW 19 24 10 13 1019.9 1019.9 0.0
03/02:30pm 14.9 10.9 9.1 68 3.0 SSW 20 28 11 15 1019.7 1019.7 0.0
03/02:00pm 15.6 11.2 8.8 64 3.5 SSW 22 30 12 16 1019.1 1019.0 0.0
03/01:30pm 15.2 9.9 8.4 64 3.4 SSW 26 35 14 19 1018.9 1018.8 0.0
03/01:00pm 15.1 10.3 8.8 66 3.2 SW 24 33 13 18 1019.0 1018.9 0.0
03/12:30pm 15.0 10.1 8.5 65 3.3 SSW 24 39 13 21 1018.9 1018.8 0.0
03/12:00pm 15.1 10.2 8.6 65 3.3 SSW 24 32 13 17 1018.9 1018.8 0.0
03/11:30am 14.6 9.7 8.5 67 3.1 S 24 32 13 17 1018.9 1018.8 0.0
03/11:00am 14.4 9.6 8.8 69 2.8 S 24 35 13 19 1018.5 1018.4 0.0
03/10:30am 14.1 8.6 9.3 73 2.4 S 28 39 15 21 1018.4 1018.3 0.0
03/10:00am 13.9 8.9 9.5 75 2.3 SSW 26 43 14 23 1018.1 1018.0 0.0
03/09:30am 12.7 9.4 10.8 88 1.0 SSW 19 28 10 15 1017.9 1017.8 0.0
03/09:00am 11.8 8.5 11.5 98 0.2 SSW 20 30 11 16 1017.5 1017.4 10.2
03/08:30am 11.3 7.9 11.3 100 0.0 SSW 20 30 11 16 1016.9 1016.8 10.2
03/08:00am 11.1 7.7 11.1 100 0.0 SW 20 33 11 18 1016.0 1015.9 10.2
03/07:30am 10.5 7.1 10.5 100 0.0 WSW 19 26 10 14 1015.1 1015.1 10.2
03/07:00am 10.1 6.6 10.1 100 0.0 SW 19 28 10 15 1014.6 1014.6 10.2
03/06:30am 9.7 6.4 9.7 100 0.0 SW 17 24 9 13 1013.9 1013.9 10.2
03/06:00am 9.5 6.2 9.5 100 0.0 SW 17 24 9 13 1013.5 1013.5 10.2
03/05:30am 9.5 5.2 9.5 100 0.0 SW 22 32 12 17 1012.6 1012.6 10.0
03/05:00am 9.1 5.1 9.1 100 0.0 SW 20 28 11 15 1012.1 1012.1 10.0
03/04:30am 9.3 5.6 9.3 100 0.0 SW 19 28 10 15 1011.6 1011.6 10.0
03/04:00am 9.5 5.8 9.5 100 0.0 SW 19 30 10 16 1011.0 1011.0 10.0
03/03:30am 9.6 6.7 9.6 100 0.0 SW 15 22 8 12 1010.2 1010.2 10.0
03/03:00am 9.6 5.9 9.6 100 0.0 SW 19 26 10 14 1009.9 1009.9 10.0
03/02:30am 9.9 7.1 9.9 100 0.0 SW 15 20 8 11 1009.3 1009.3 10.0
03/02:00am 10.1 6.9 10.1 100 0.0 SSW 17 20 9 11 1009.1 1009.1 10.0
03/01:30am 10.5 7.1 10.5 100 0.0 SSW 19 28 10 15 1008.5 1008.5 10.0
03/01:00am 10.7 7.7 10.7 100 0.0 S 17 22 9 12 1007.8 1007.8 10.0
03/12:30am 10.8 6.5 10.8 100 0.0 S 24 33 13 18 1007.4 1007.4 9.8
03/12:00am 10.8 7.3 10.8 100 0.0 S 20 26 11 14 1006.8 1006.8 9.8
 
Date/Time
CST
Temp
°C
App
Temp
°C
Dew
Point
Rel
Hum
%
Delta-T
°C
Wind Press
QNH
hPa
Press
MSL
hPa
Rain
since 9 am
mm
Dir
 
Spd
km/h
Gust
km/h
Spd
kts
Gust
kts
02/11:30pm 10.8 7.5 10.8 100 0.0 S 19 26 10 14 1006.1 1006.1 9.6
02/11:00pm 10.9 8.0 10.9 100 0.0 SSE 17 22 9 12 1005.5 1005.5 9.6
02/10:30pm 11.0 7.7 11.0 100 0.0 SSE 19 24 10 13 1005.0 1005.0 9.2
02/10:00pm 11.1 8.2 11.1 100 0.0 SE 17 20 9 11 1004.4 1004.4 9.2
02/09:30pm 10.9 8.4 10.9 100 0.0 SE 15 20 8 11 1004.1 1004.1 9.2
02/09:00pm 10.9 8.0 10.9 100 0.0 SE 17 20 9 11 1003.7 1003.7 9.0
02/08:30pm 10.7 8.9 10.7 100 0.0 SE 11 19 6 10 1003.7 1003.7 9.0
02/08:00pm 10.9 9.1 10.9 100 0.0 ESE 11 15 6 8 1003.6 1003.6 7.6
02/07:30pm 11.2 9.9 11.2 100 0.0 ESE 9 11 5 6 1003.7 1003.7 7.0
02/07:00pm 11.5 11.2 11.5 100 0.0 ESE 4 11 2 6 1003.7 1003.7 5.8
02/06:30pm 11.5 10.8 11.5 100 0.0 W 6 9 3 5 1003.7 1003.7 4.4
02/06:00pm 12.0 11.0 10.4 90 0.8 WNW 6 7 3 4 1003.2 1003.2 3.0
02/05:30pm 12.7 8.7 9.0 78 1.9 NW 20 30 11 16 1003.0 1003.0 2.6
02/05:00pm 15.5 12.0 5.4 51 4.8 NW 13 19 7 10 1002.7 1002.7 2.4
02/04:30pm 15.6 10.5 4.3 47 5.3 NNW 20 35 11 19 1002.6 1002.6 2.4
02/04:00pm 16.2 11.1 4.3 45 5.6 NW 20 28 11 15 1002.7 1002.7 2.4
02/03:30pm 16.3 12.1 5.6 49 5.2 NNW 17 24 9 13 1002.7 1002.7 2.4
02/03:00pm 16.1 11.6 6.0 51 4.9 NNW 19 28 10 15 1002.9 1002.9 2.4
02/02:30pm 15.6 12.2 5.8 52 4.7 NNW 13 19 7 10 1003.1 1003.1 2.4
02/02:00pm 15.7 12.4 6.4 54 4.5 NNW 13 20 7 11 1003.3 1003.3 2.4
02/01:30pm 15.2 12.0 7.0 58 4.0 N 13 19 7 10 1003.7 1003.7 2.4
02/01:00pm 14.4 10.6 9.0 70 2.7 N 19 24 10 13 1004.5 1004.5 2.4
02/12:30pm 13.6 10.6 9.3 75 2.2 N 15 22 8 12 1005.2 1005.2 2.4
02/12:00pm 13.1 9.8 9.7 80 1.7 N 17 24 9 13 1005.8 1005.8 2.4
02/11:30am 12.3 10.4 11.7 96 0.3 NNE 13 17 7 9 1006.1 1006.1 2.2
02/11:00am 10.6 9.5 10.6 100 0.0 NE 7 9 4 5 1006.6 1006.6 2.2
02/10:30am 10.0 8.7 10.0 100 0.0 ENE 7 11 4 6 1006.6 1006.6 2.2
02/10:00am 9.7 6.4 9.7 100 0.0 NE 17 20 9 11 1007.5 1007.5 2.2
02/09:30am 9.7 7.6 9.7 100 0.0 ENE 11 15 6 8 1007.9 1007.9 2.0
02/09:00am 9.8 7.7 9.8 100 0.0 NNE 11 15 6 8 1009.0 1009.0 8.8
02/08:30am 9.9 8.2 9.9 100 0.0 N 9 13 5 7 1008.9 1008.9 7.4
02/08:00am 10.1 8.4 9.9 99 0.1 WNW 9 15 5 8 1008.2 1008.2 3.8
02/07:30am 10.3 8.0 10.3 100 0.0 NE 13 17 7 9 1007.3 1007.3 2.4
02/07:00am 10.1 8.5 10.1 100 0.0 NNE 9 11 5 6 1007.6 1007.6 2.4
02/06:30am 10.0 8.0 10.0 100 0.0 NE 11 15 6 8 1007.5 1007.5 2.4
02/06:00am 10.1 8.8 10.1 100 0.0 ENE 7 9 4 5 1007.9 1007.9 2.4
02/05:30am 10.0 8.7 10.0 100 0.0 N 7 9 4 5 1008.2 1008.2 2.4
02/05:00am 10.3 10.1 10.3 100 0.0 NNE 2 9 1 5 1007.8 1007.8 2.2
02/04:30am 10.3 8.2 9.8 97 0.3 NNW 11 15 6 8 1008.3 1008.3 1.8
02/04:00am 10.7 5.8 8.5 86 1.1 NNW 24 33 13 18 1008.6 1008.6 0.8
02/03:30am 11.5 10.5 7.2 75 2.1 NNW 2 7 1 4 1008.4 1008.4 0.2
02/03:00am 11.7 9.3 6.8 72 2.3 N 9 13 5 7 1008.4 1008.4 0.0
02/02:30am 12.5 8.6 5.2 61 3.4 NNW 15 20 8 11 1008.6 1008.6 0.0
02/02:00am 13.7 9.3 2.9 48 4.8 N 15 19 8 10 1009.0 1009.0 0.0
02/01:30am 13.6 9.1 1.9 45 5.1 NNE 15 17 8 9 1009.2 1009.2 0.0
02/01:00am 13.9 10.0 1.2 42 5.5 N 11 13 6 7 1009.4 1009.4 0.0
02/12:30am 13.8 10.2 0.8 41 5.5 N 9 13 5 7 1009.6 1009.6 0.0
02/12:00am 12.9 8.9 0.6 43 5.2 N 11 15 6 8 1009.5 1009.5 0.0
 
Date/Time
CST
Temp
°C
App
Temp
°C
Dew
Point
Rel
Hum
%
Delta-T
°C
Wind Press
QNH
hPa
Press
MSL
hPa
Rain
since 9 am
mm
Dir
 
Spd
km/h
Gust
km/h
Spd
kts
Gust
kts
01/11:30pm 12.8 8.4 0.5 43 5.2 NNE 13 17 7 9 1009.3 1009.3 0.0
01/11:00pm 13.8 10.2 0.8 41 5.5 NNE 9 13 5 7 1009.7 1009.7 0.0
01/10:30pm 14.7 10.7 0.2 37 6.1 NE 11 13 6 7 1009.9 1009.9 0.0
01/10:00pm 15.8 11.8 0.8 36 6.5 NNE 11 15 6 8 1010.0 1010.0 0.0
01/09:30pm 15.6 11.6 0.2 35 6.6 NE 11 13 6 7 1010.2 1010.2 0.0
01/09:00pm 15.8 11.4 0.4 35 6.6 NNE 13 15 7 8 1010.1 1010.1 0.0
01/08:30pm 15.8 11.4 0.4 35 6.6 NNE 13 15 7 8 1010.0 1010.0 0.0
01/08:00pm 15.8 11.4 0.4 35 6.6 NNE 13 13 7 7 1009.7 1009.7 0.0
01/07:30pm 17.5 12.6 -0.7 29 7.8 N 15 19 8 10 1010.0 1010.0 0.0
01/07:00pm 17.7 13.1 -1.0 28 7.9 N 13 17 7 9 1009.9 1009.9 0.0
01/06:30pm 18.5 13.4 -1.9 25 8.6 N 15 20 8 11 1010.0 1010.0 0.0
01/06:00pm 19.1 13.0 -2.5 23 9.0 NNW 20 28 11 15 1010.1 1010.1 0.0
01/05:30pm 19.8 13.7 -2.5 22 9.4 NNW 20 30 11 16 1010.0 1010.0 0.0

Other Formats:

Comma delimited format used in spreadsheet applications
http://www.bom.gov.au/fwo/IDS60801/IDS60801.95687.axf

JavaScript Object Notation format (JSON) in row-major order
http://www.bom.gov.au/fwo/IDS60801/IDS60801.95687.json